createdAt,value
2023-01-18T00:01:44.006Z,98398.56
2023-01-18T00:04:29.299Z,98398.34
2023-01-18T00:07:14.176Z,98400.56
2023-01-18T00:09:59.050Z,98405.38
2023-01-18T00:12:45.214Z,98406.31
2023-01-18T00:15:35.183Z,98385.94
2023-01-18T00:18:20.450Z,98391.13
2023-01-18T00:21:09.120Z,98388.59
2023-01-18T00:23:57.529Z,98393.00
2023-01-18T00:26:42.580Z,98389.22
2023-01-18T00:29:30.372Z,98392.94
2023-01-18T00:32:15.785Z,98393.25
2023-01-18T00:35:01.371Z,98392.72
2023-01-18T00:37:47.741Z,98388.53
2023-01-18T00:40:32.822Z,98381.59
2023-01-18T00:43:18.345Z,98376.53
2023-01-18T00:46:03.901Z,98389.03
2023-01-18T00:48:49.893Z,98385.72
2023-01-18T00:51:34.891Z,98383.00
2023-01-18T00:54:19.854Z,98375.41
2023-01-18T00:57:05.209Z,98371.28
2023-01-18T00:59:50.544Z,98369.78
2023-01-18T01:02:36.156Z,98371.44
2023-01-18T01:05:23.866Z,98369.97
2023-01-18T01:08:10.068Z,98367.28
2023-01-18T01:11:08.718Z,98373.53
2023-01-18T01:13:53.543Z,98374.75
2023-01-18T01:16:38.492Z,98371.50
2023-01-18T01:19:23.888Z,98371.84
2023-01-18T01:22:08.879Z,98370.44
2023-01-18T01:24:53.689Z,98375.91
2023-01-18T01:27:38.485Z,98383.50
2023-01-18T01:30:23.545Z,98385.44
2023-01-18T01:33:08.909Z,98388.09
2023-01-18T01:35:58.542Z,98384.03
2023-01-18T01:38:44.052Z,98390.72
2023-01-18T01:41:31.781Z,98400.34
2023-01-18T01:44:19.751Z,98402.81
2023-01-18T01:47:13.001Z,98398.94
2023-01-18T01:50:02.557Z,98399.88
2023-01-18T01:52:48.558Z,98392.53
2023-01-18T01:55:37.289Z,98390.19
2023-01-18T01:58:27.460Z,98393.50
2023-01-18T02:01:12.744Z,98390.88
2023-01-18T02:04:00.944Z,98394.97
2023-01-18T02:06:46.540Z,98393.50
2023-01-18T02:09:31.895Z,98406.13
2023-01-18T02:12:16.958Z,98397.88
2023-01-18T02:15:02.948Z,98400.41
2023-01-18T02:18:00.092Z,98402.28
2023-01-18T02:20:56.446Z,98406.03
2023-01-18T02:24:00.650Z,98402.44
2023-01-18T02:27:00.568Z,98394.47
2023-01-18T02:30:00.591Z,98397.91
2023-01-18T02:32:57.442Z,98396.34
2023-01-18T02:35:47.648Z,98400.47
2023-01-18T02:38:37.915Z,98396.88
2023-01-18T02:41:38.850Z,98398.06
2023-01-18T02:44:30.285Z,98399.78
2023-01-18T02:47:15.916Z,98404.31
2023-01-18T02:50:02.562Z,98407.47
2023-01-18T02:52:47.648Z,98414.16
2023-01-18T02:55:55.877Z,98411.72
2023-01-18T02:58:46.894Z,98419.75
2023-01-18T03:01:43.973Z,98413.63
2023-01-18T03:04:34.246Z,98415.28
2023-01-18T03:07:25.673Z,98415.63
2023-01-18T03:10:13.251Z,98416.50
2023-01-18T03:13:15.618Z,98419.94
2023-01-18T03:16:09.452Z,98427.53
2023-01-18T03:19:11.107Z,98435.75
2023-01-18T03:21:56.667Z,98438.09
2023-01-18T03:24:43.942Z,98448.94
2023-01-18T03:27:28.849Z,98456.06
2023-01-18T03:30:14.410Z,98451.91
2023-01-18T03:32:59.910Z,98455.25
2023-01-18T03:35:46.254Z,98464.69
2023-01-18T03:38:34.033Z,98467.06
2023-01-18T03:41:21.883Z,98473.69
2023-01-18T03:44:11.769Z,98473.69
2023-01-18T03:46:57.359Z,98487.13
2023-01-18T03:49:42.471Z,98485.47
2023-01-18T03:52:38.834Z,98483.84
2023-01-18T03:55:31.638Z,98486.72
2023-01-18T03:58:22.610Z,98479.69
2023-01-18T04:01:07.840Z,98477.75
2023-01-18T04:03:53.141Z,98472.28
2023-01-18T04:06:38.009Z,98484.50
2023-01-18T04:09:22.870Z,98476.56
2023-01-18T04:12:07.955Z,98491.97
2023-01-18T04:14:53.835Z,98490.94
2023-01-18T04:17:39.148Z,98492.84
2023-01-18T04:20:24.593Z,98489.97
2023-01-18T04:23:09.905Z,98497.03
2023-01-18T04:25:54.956Z,98505.75
2023-01-18T04:28:40.242Z,98509.00
2023-01-18T04:31:25.135Z,98495.78
2023-01-18T04:34:10.421Z,98503.19
2023-01-18T04:36:55.269Z,98503.97
2023-01-18T04:39:40.206Z,98501.31
2023-01-18T04:42:25.999Z,98503.22
2023-01-18T04:45:11.279Z,98510.41
2023-01-18T04:47:56.308Z,98509.25
2023-01-18T04:50:41.170Z,98506.19
2023-01-18T04:53:26.558Z,98507.00
2023-01-18T04:56:11.894Z,98511.13
2023-01-18T04:58:57.140Z,98514.72
2023-01-18T05:01:42.408Z,98517.22
2023-01-18T05:04:27.422Z,98513.03
2023-01-18T05:07:12.231Z,98517.09
2023-01-18T05:09:57.052Z,98512.78
2023-01-18T05:12:41.857Z,98511.03
2023-01-18T05:15:26.651Z,98525.84
2023-01-18T05:18:11.481Z,98527.63
2023-01-18T05:20:56.407Z,98530.16
2023-01-18T05:23:42.008Z,98527.84
2023-01-18T05:26:27.284Z,98529.31
2023-01-18T05:29:12.280Z,98533.66
2023-01-18T05:31:57.340Z,98532.63
2023-01-18T05:34:42.976Z,98536.66
2023-01-18T05:37:28.118Z,98548.66
2023-01-18T05:40:13.661Z,98548.94
2023-01-18T05:42:59.123Z,98548.91
2023-01-18T05:45:44.148Z,98556.16
2023-01-18T05:48:29.531Z,98557.09
2023-01-18T05:51:14.607Z,98552.19
2023-01-18T05:54:00.229Z,98559.50
2023-01-18T05:56:45.601Z,98560.84
2023-01-18T05:59:30.344Z,98566.69
2023-01-18T06:02:15.396Z,98573.66
2023-01-18T06:05:00.457Z,98576.81
2023-01-18T06:07:45.365Z,98576.69
2023-01-18T06:10:31.015Z,98580.44
2023-01-18T06:13:16.053Z,98580.00
2023-01-18T06:16:02.102Z,98580.84
2023-01-18T06:18:47.225Z,98587.56
2023-01-18T06:21:32.073Z,98595.16
2023-01-18T06:24:16.896Z,98600.94
2023-01-18T06:27:01.811Z,98602.84
2023-01-18T06:29:46.632Z,98605.72
2023-01-18T06:32:31.972Z,98620.06
2023-01-18T06:35:16.951Z,98620.03
2023-01-18T06:38:04.045Z,98610.84
2023-01-18T06:40:49.270Z,98628.78
2023-01-18T06:43:34.036Z,98630.19
2023-01-18T06:46:18.821Z,98632.53
2023-01-18T06:49:03.763Z,98637.09
2023-01-18T06:51:48.634Z,98636.03
2023-01-18T06:54:34.040Z,98642.47
2023-01-18T06:57:18.702Z,98648.31
2023-01-18T07:00:08.166Z,98657.81
2023-01-18T07:02:53.399Z,98658.81
2023-01-18T07:05:38.211Z,98663.00
2023-01-18T07:08:25.946Z,98678.34
2023-01-18T07:11:13.182Z,98685.97
2023-01-18T07:13:58.427Z,98689.31
2023-01-18T07:16:43.833Z,98688.97
2023-01-18T07:19:29.156Z,98695.31
2023-01-18T07:22:14.579Z,98694.44
2023-01-18T07:24:59.704Z,98707.81
2023-01-18T07:27:44.687Z,98707.06
2023-01-18T07:30:29.866Z,98708.06
2023-01-18T07:33:14.771Z,98708.66
2023-01-18T07:35:59.963Z,98713.84
2023-01-18T07:38:45.073Z,98714.09
2023-01-18T07:41:31.113Z,98715.09
2023-01-18T07:44:16.566Z,98725.31
2023-01-18T07:47:01.365Z,98734.81
2023-01-18T07:49:46.808Z,98737.44
2023-01-18T07:52:32.263Z,98728.19
2023-01-18T07:55:17.198Z,98745.09
2023-01-18T07:58:02.142Z,98746.19
2023-01-18T08:00:47.702Z,98754.03
2023-01-18T08:03:33.459Z,98758.03
2023-01-18T08:06:24.171Z,98752.13
2023-01-18T08:09:09.082Z,98761.81
2023-01-18T08:11:53.991Z,98760.28
2023-01-18T08:14:39.929Z,98770.13
2023-01-18T08:17:25.377Z,98771.19
2023-01-18T08:20:10.832Z,98779.78
2023-01-18T08:22:57.361Z,98786.28
2023-01-18T08:25:43.771Z,98774.91
2023-01-18T08:28:29.170Z,98785.09
2023-01-18T08:31:17.570Z,98794.38
2023-01-18T08:34:03.015Z,98781.91
2023-01-18T08:36:48.295Z,98792.00
2023-01-18T08:39:33.316Z,98798.69
2023-01-18T08:42:18.147Z,98811.09
2023-01-18T08:45:03.298Z,98809.63
2023-01-18T08:47:48.366Z,98814.75
2023-01-18T08:50:35.007Z,98816.47
2023-01-18T08:53:20.318Z,98827.22
2023-01-18T08:56:06.022Z,98831.06
2023-01-18T08:58:51.168Z,98826.91
2023-01-18T09:01:36.151Z,98830.28
2023-01-18T09:04:21.364Z,98835.84
2023-01-18T09:07:06.640Z,98841.47
2023-01-18T09:09:51.564Z,98845.19
2023-01-18T09:12:38.321Z,98843.28
2023-01-18T09:15:23.253Z,98849.44
2023-01-18T09:18:08.258Z,98854.41
2023-01-18T09:20:53.747Z,98851.19
2023-01-18T09:23:40.529Z,98855.75
2023-01-18T09:26:26.280Z,98859.25
2023-01-18T09:29:11.930Z,98849.44
2023-01-18T09:31:56.931Z,98856.91
2023-01-18T09:34:41.684Z,98857.50
2023-01-18T09:37:26.575Z,98866.78
2023-01-18T09:40:17.846Z,98874.81
2023-01-18T09:43:03.335Z,98869.00
2023-01-18T09:45:48.680Z,98873.50
2023-01-18T09:48:41.393Z,98873.59
2023-01-18T09:51:42.326Z,98876.25
2023-01-18T09:54:51.022Z,98866.91
2023-01-18T09:57:47.281Z,98869.31
2023-01-18T10:00:36.770Z,98870.66
2023-01-18T10:03:54.331Z,98874.06
2023-01-18T10:06:54.231Z,98880.41
2023-01-18T10:09:42.507Z,98879.34
2023-01-18T10:12:44.123Z,98880.91
2023-01-18T10:15:31.898Z,98878.66
2023-01-18T10:18:18.601Z,98879.97
2023-01-18T10:21:07.195Z,98879.28
2023-01-18T10:24:30.119Z,98873.78
2023-01-18T10:27:24.225Z,98873.22
2023-01-18T10:30:23.911Z,98878.56
2023-01-18T10:33:24.959Z,98873.34
2023-01-18T10:36:24.570Z,98869.97
2023-01-18T10:39:46.650Z,98873.16
2023-01-18T10:42:58.859Z,98881.25
2023-01-18T10:45:44.263Z,98883.97
2023-01-18T10:48:32.039Z,98887.28
2023-01-18T10:51:36.202Z,98883.72
2023-01-18T10:54:25.998Z,98882.97
2023-01-18T10:57:21.005Z,98880.97
2023-01-18T11:00:17.483Z,98886.78
2023-01-18T11:03:04.908Z,98881.22
2023-01-18T11:05:50.257Z,98888.50
2023-01-18T11:08:35.959Z,98880.81
2023-01-18T11:11:28.797Z,98880.94
2023-01-18T11:14:31.516Z,98882.88
2023-01-18T11:17:16.380Z,98881.78
2023-01-18T11:20:06.866Z,98869.28
2023-01-18T11:22:58.408Z,98868.47
2023-01-18T11:25:52.887Z,98873.97
2023-01-18T11:28:45.943Z,98867.59
2023-01-18T11:31:44.120Z,98864.44
2023-01-18T11:34:35.760Z,98855.44
2023-01-18T11:37:37.281Z,98852.94
2023-01-18T11:40:28.217Z,98848.66
2023-01-18T11:43:25.052Z,98852.63
2023-01-18T11:46:31.391Z,98844.44
2023-01-18T11:49:27.684Z,98832.03
2023-01-18T11:52:23.783Z,98833.78
2023-01-18T11:55:23.316Z,98835.84
2023-01-18T11:58:35.371Z,98826.28
2023-01-18T12:01:29.621Z,98828.50
2023-01-18T12:04:36.338Z,98826.88
2023-01-18T12:07:45.342Z,98823.97
2023-01-18T12:10:45.538Z,98819.88
2023-01-18T12:14:00.800Z,98806.91
2023-01-18T12:17:04.001Z,98791.31
2023-01-18T12:20:05.925Z,98793.69
2023-01-18T12:23:15.699Z,98777.47
2023-01-18T12:26:22.493Z,98768.97
2023-01-18T12:29:15.864Z,98757.03
2023-01-18T12:32:31.701Z,98748.53
2023-01-18T12:35:53.739Z,98746.56
2023-01-18T12:38:46.314Z,98718.69
2023-01-18T12:41:42.368Z,98714.56
2023-01-18T12:44:31.011Z,98720.03
2023-01-18T12:47:37.348Z,98718.16
2023-01-18T12:50:31.793Z,98695.69
2023-01-18T12:53:34.851Z,98709.34
2023-01-18T12:56:37.530Z,98703.66
2023-01-18T12:59:44.922Z,98706.50
2023-01-18T13:02:38.656Z,98690.63
2023-01-18T13:05:45.934Z,98682.19
2023-01-18T13:08:53.644Z,98672.59
2023-01-18T13:11:42.149Z,98661.16
2023-01-18T13:14:38.148Z,98647.75
2023-01-18T13:17:35.277Z,98629.94
2023-01-18T13:20:45.586Z,98619.72
2023-01-18T13:23:36.206Z,98626.31
2023-01-18T13:26:30.566Z,98642.03
2023-01-18T13:29:20.844Z,98634.41
2023-01-18T13:32:24.128Z,98634.13
2023-01-18T13:35:21.455Z,98641.50
2023-01-18T13:38:17.923Z,98658.84
2023-01-18T13:41:06.841Z,98670.16
2023-01-18T13:43:52.046Z,98650.59
2023-01-18T13:46:37.238Z,98663.50
2023-01-18T13:49:37.615Z,98666.56
2023-01-18T13:52:31.821Z,98638.16
2023-01-18T13:55:25.609Z,98620.63
2023-01-18T13:58:26.244Z,98640.28
2023-01-18T14:01:21.747Z,98644.63
2023-01-18T14:04:21.252Z,98641.59
2023-01-18T14:07:07.961Z,98632.53
2023-01-18T14:09:53.577Z,98665.34
2023-01-18T14:12:49.917Z,98673.22
2023-01-18T14:15:49.684Z,98677.34
2023-01-18T14:18:35.084Z,98678.75
2023-01-18T14:21:25.118Z,98668.13
2023-01-18T14:24:22.317Z,98625.53
2023-01-18T14:27:14.070Z,98616.75
2023-01-18T14:30:07.083Z,98604.88
2023-01-18T14:33:01.570Z,98629.59
2023-01-18T14:35:57.559Z,98671.28
2023-01-18T14:38:42.687Z,98676.22
2023-01-18T14:41:28.332Z,98698.22
2023-01-18T14:44:16.614Z,98715.00
2023-01-18T14:47:10.821Z,98713.00
2023-01-18T14:50:04.806Z,98655.94
2023-01-18T14:52:52.461Z,98689.34
2023-01-18T14:55:38.004Z,98697.75
2023-01-18T14:58:23.115Z,98709.97
2023-01-18T15:01:33.790Z,98714.03
2023-01-18T15:04:22.088Z,98711.88
2023-01-18T15:07:14.893Z,98738.09
2023-01-18T15:10:00.255Z,98777.09
2023-01-18T15:12:56.714Z,98794.25
2023-01-18T15:15:42.809Z,98819.00
2023-01-18T15:18:29.360Z,98842.94
2023-01-18T15:21:35.272Z,98858.44
2023-01-18T15:24:23.519Z,98866.41
2023-01-18T15:27:14.826Z,98870.31
2023-01-18T15:30:01.615Z,98892.75
2023-01-18T15:32:50.294Z,98897.78
2023-01-18T15:35:35.999Z,98911.56
2023-01-18T15:38:21.323Z,98925.19
2023-01-18T15:41:11.302Z,98935.22
2023-01-18T15:43:56.679Z,98941.88
2023-01-18T15:46:42.026Z,98951.97
2023-01-18T15:49:28.117Z,98946.56
2023-01-18T15:52:13.478Z,98952.28
2023-01-18T15:54:58.571Z,98962.44
2023-01-18T15:57:53.809Z,98957.97
2023-01-18T16:00:43.153Z,98974.94
2023-01-18T16:03:34.103Z,98976.38
2023-01-18T16:06:22.261Z,98984.59
2023-01-18T16:09:12.461Z,98991.44
2023-01-18T16:11:58.216Z,98993.00
2023-01-18T16:14:52.755Z,99000.59
2023-01-18T16:17:38.100Z,98997.91
2023-01-18T16:20:23.169Z,99001.22
2023-01-18T16:23:15.181Z,99014.03
2023-01-18T16:26:05.037Z,99013.91
2023-01-18T16:28:51.662Z,99019.75
2023-01-18T16:31:40.732Z,99026.22
2023-01-18T16:34:26.273Z,99024.50
2023-01-18T16:37:11.490Z,99030.50
2023-01-18T16:39:56.861Z,99037.13
2023-01-18T16:43:02.583Z,99043.00
2023-01-18T16:45:50.118Z,99043.72
2023-01-18T16:48:35.588Z,99053.78
2023-01-18T16:51:20.906Z,99056.44
2023-01-18T16:54:05.958Z,99050.50
2023-01-18T16:56:50.992Z,99061.44
2023-01-18T16:59:35.773Z,99061.03
2023-01-18T17:02:20.786Z,99072.00
2023-01-18T17:05:06.705Z,99080.25
2023-01-18T17:07:52.375Z,99082.56
2023-01-18T17:10:39.559Z,99089.28
2023-01-18T17:13:24.886Z,99095.03
2023-01-18T17:16:14.198Z,99100.84
2023-01-18T17:18:59.636Z,99096.69
2023-01-18T17:21:46.298Z,99096.59
2023-01-18T17:24:32.207Z,99099.91
2023-01-18T17:27:17.239Z,99112.47
2023-01-18T17:30:02.277Z,99108.25
2023-01-18T17:32:47.603Z,99115.59
2023-01-18T17:35:32.518Z,99125.75
2023-01-18T17:38:24.330Z,99124.16
2023-01-18T17:41:22.948Z,99127.25
2023-01-18T17:44:08.952Z,99126.41
2023-01-18T17:46:54.226Z,99131.38
2023-01-18T17:49:39.443Z,99144.19
2023-01-18T17:52:25.366Z,99144.06
2023-01-18T17:55:12.757Z,99150.94
2023-01-18T17:57:57.840Z,99150.75
2023-01-18T18:00:45.345Z,99151.69
2023-01-18T18:03:30.334Z,99159.25
2023-01-18T18:06:26.153Z,99156.69
2023-01-18T18:09:15.462Z,99160.19
2023-01-18T18:12:00.179Z,99170.22
2023-01-18T18:14:45.782Z,99170.97
2023-01-18T18:17:32.017Z,99166.75
2023-01-18T18:20:17.682Z,99176.06
2023-01-18T18:23:03.244Z,99175.22
2023-01-18T18:25:48.969Z,99181.13
2023-01-18T18:28:34.194Z,99185.28
2023-01-18T18:31:19.073Z,99196.03
2023-01-18T18:34:05.326Z,99196.16
2023-01-18T18:36:50.222Z,99203.03
2023-01-18T18:39:35.160Z,99209.78
2023-01-18T18:42:20.514Z,99204.00
2023-01-18T18:45:05.941Z,99197.09
2023-01-18T18:47:51.849Z,99212.53
2023-01-18T18:50:36.657Z,99208.44
2023-01-18T18:53:29.468Z,99206.75
2023-01-18T18:56:18.581Z,99201.56
2023-01-18T18:59:03.943Z,99208.31
2023-01-18T19:01:49.112Z,99217.41
2023-01-18T19:04:34.440Z,99210.63
2023-01-18T19:07:19.776Z,99219.03
2023-01-18T19:10:05.942Z,99219.81
2023-01-18T19:12:51.228Z,99221.59
2023-01-18T19:15:37.067Z,99208.13
2023-01-18T19:18:22.718Z,99204.09
2023-01-18T19:21:07.955Z,99201.69
2023-01-18T19:23:52.838Z,99213.53
2023-01-18T19:26:38.369Z,99204.97
2023-01-18T19:29:23.157Z,99199.03
2023-01-18T19:32:08.522Z,99199.31
2023-01-18T19:34:53.862Z,99196.78
2023-01-18T19:37:39.302Z,99189.56
2023-01-18T19:40:24.133Z,99197.69
2023-01-18T19:43:09.543Z,99181.22
2023-01-18T19:45:54.610Z,99175.34
2023-01-18T19:48:39.822Z,99176.25
2023-01-18T19:51:25.202Z,99168.47
2023-01-18T19:54:10.395Z,99182.97
2023-01-18T19:56:55.338Z,99178.00
2023-01-18T19:59:40.717Z,99178.22
2023-01-18T20:02:26.469Z,99172.97
2023-01-18T20:05:11.873Z,99171.53
2023-01-18T20:07:57.239Z,99173.34
2023-01-18T20:10:42.755Z,99169.88
2023-01-18T20:13:27.775Z,99169.78
2023-01-18T20:16:13.172Z,99167.88
2023-01-18T20:18:58.672Z,99169.97
2023-01-18T20:21:43.691Z,99172.28
2023-01-18T20:24:29.179Z,99164.69
2023-01-18T20:27:16.595Z,99169.88
2023-01-18T20:30:01.770Z,99168.25
2023-01-18T20:32:47.573Z,99167.34
2023-01-18T20:35:32.449Z,99164.91
2023-01-18T20:38:17.793Z,99170.09
2023-01-18T20:41:02.613Z,99166.47
2023-01-18T20:43:47.529Z,99159.94
2023-01-18T20:46:32.559Z,99158.19
2023-01-18T20:49:20.455Z,99164.22
2023-01-18T20:52:06.800Z,99158.63
2023-01-18T20:54:52.490Z,99156.34
2023-01-18T20:57:37.843Z,99159.75
2023-01-18T21:00:23.361Z,99154.84
2023-01-18T21:03:10.470Z,99152.13
2023-01-18T21:05:55.545Z,99163.53
2023-01-18T21:08:40.430Z,99153.34
2023-01-18T21:11:25.573Z,99155.88
2023-01-18T21:14:10.785Z,99160.03
2023-01-18T21:16:55.656Z,99155.78
2023-01-18T21:19:40.707Z,99151.53
2023-01-18T21:22:25.581Z,99160.84
2023-01-18T21:25:10.465Z,99165.88
2023-01-18T21:27:55.885Z,99166.84
2023-01-18T21:30:40.850Z,99170.03
2023-01-18T21:33:26.728Z,99182.84
2023-01-18T21:36:14.237Z,99175.56
2023-01-18T21:38:59.415Z,99176.34
2023-01-18T21:41:45.229Z,99179.06
2023-01-18T21:44:30.558Z,99186.75
2023-01-18T21:47:17.790Z,99188.31
2023-01-18T21:50:17.186Z,99193.34
2023-01-18T21:53:02.881Z,99194.16
2023-01-18T21:55:48.546Z,99196.88
2023-01-18T21:58:33.718Z,99202.72
2023-01-18T22:01:30.644Z,99190.66
2023-01-18T22:04:16.062Z,99204.19
2023-01-18T22:07:01.560Z,99207.63
2023-01-18T22:10:02.652Z,99211.00
2023-01-18T22:12:48.883Z,99212.50
2023-01-18T22:15:33.639Z,99218.44
2023-01-18T22:18:18.499Z,99223.66
2023-01-18T22:21:03.573Z,99227.19
2023-01-18T22:23:48.888Z,99227.00
2023-01-18T22:26:36.280Z,99233.59
2023-01-18T22:29:21.578Z,99241.09
2023-01-18T22:32:07.057Z,99250.31
2023-01-18T22:34:52.542Z,99254.44
2023-01-18T22:37:37.481Z,99259.53
2023-01-18T22:40:22.360Z,99262.06
2023-01-18T22:43:07.697Z,99265.53
2023-01-18T22:45:56.303Z,99267.16
2023-01-18T22:48:42.935Z,99265.56
2023-01-18T22:51:28.207Z,99258.13
2023-01-18T22:54:13.341Z,99263.22
2023-01-18T22:56:58.589Z,99257.31
2023-01-18T22:59:43.531Z,99274.28
2023-01-18T23:02:28.430Z,99272.84
2023-01-18T23:05:13.390Z,99286.59
2023-01-18T23:07:58.809Z,99281.34
2023-01-18T23:10:43.845Z,99290.75
2023-01-18T23:13:28.635Z,99287.50
2023-01-18T23:16:14.484Z,99284.91
2023-01-18T23:18:59.791Z,99299.88
2023-01-18T23:21:44.716Z,99296.41
2023-01-18T23:24:29.917Z,99301.47
2023-01-18T23:27:14.932Z,99309.34
2023-01-18T23:30:00.437Z,99302.63
2023-01-18T23:32:45.947Z,99316.72
2023-01-18T23:35:31.197Z,99308.06
2023-01-18T23:38:16.569Z,99316.72
2023-01-18T23:41:01.939Z,99309.78
2023-01-18T23:43:47.181Z,99314.06
2023-01-18T23:46:32.619Z,99319.53
2023-01-18T23:49:17.960Z,99320.44
2023-01-18T23:52:03.348Z,99324.09
2023-01-18T23:54:48.715Z,99330.09
2023-01-18T23:57:33.591Z,99335.28
